TimeEDT,TemperatureF,Dew PointF,Humidity,Sea Level PressureIn,VisibilityMPH,Wind Direction,Wind SpeedMPH,Gust SpeedMPH,PrecipitationIn,Events,Conditions,WindDirDegrees,DateUTC
12:14 AM,66.6,62.1,85,29.95,10.0,Calm,Calm,-,N/A,,Clear,0,2013-07-21 04:14:00
12:34 AM,66.4,61.9,85,29.95,10.0,Calm,Calm,-,N/A,,Clear,0,2013-07-21 04:34:00
12:54 AM,67.1,62.1,84,29.95,10.0,Calm,Calm,-,N/A,,Clear,0,2013-07-21 04:54:00
1:14 AM,65.7,61.9,88,29.95,10.0,Calm,Calm,-,N/A,,Clear,0,2013-07-21 05:14:00
1:34 AM,66.9,63.3,88,29.95,10.0,Calm,Calm,-,N/A,,Clear,0,2013-07-21 05:34:00
1:54 AM,66.9,63.5,89,29.95,10.0,Calm,Calm,-,N/A,,Clear,0,2013-07-21 05:54:00
2:14 AM,68.2,63.0,83,29.95,10.0,Calm,Calm,-,N/A,,Clear,0,2013-07-21 06:14:00
2:34 AM,68.0,63.0,84,29.95,10.0,Calm,Calm,-,N/A,,Clear,0,2013-07-21 06:34:00
2:53 AM,68.0,61.7,80,29.95,10.0,NNE,4.6,-,N/A,,Clear,20,2013-07-21 06:53:00
3:14 AM,67.8,60.8,78,29.96,10.0,Calm,Calm,-,N/A,,Scattered Clouds,0,2013-07-21 07:14:00
3:33 AM,67.6,60.6,78,29.96,10.0,NNE,3.5,-,N/A,,Mostly Cloudy,20,2013-07-21 07:33:00
3:54 AM,67.5,60.3,78,29.96,10.0,NE,4.6,-,N/A,,Overcast,50,2013-07-21 07:54:00
4:14 AM,66.9,59.9,78,29.96,10.0,ENE,3.5,-,N/A,,Mostly Cloudy,60,2013-07-21 08:14:00
4:34 AM,66.4,60.6,82,29.96,10.0,Calm,Calm,-,N/A,,Scattered Clouds,0,2013-07-21 08:34:00
4:54 AM,66.4,60.6,82,29.96,10.0,Calm,Calm,-,N/A,,Scattered Clouds,0,2013-07-21 08:54:00
5:13 AM,65.8,60.3,82,29.97,10.0,NNE,3.5,-,N/A,,Mostly Cloudy,20,2013-07-21 09:13:00
5:34 AM,64.8,60.1,85,29.96,10.0,Calm,Calm,-,N/A,,Scattered Clouds,0,2013-07-21 09:34:00
5:54 AM,64.6,59.0,82,29.97,10.0,NE,4.6,-,N/A,,Scattered Clouds,50,2013-07-21 09:54:00
6:13 AM,64.0,58.1,81,29.97,10.0,NE,4.6,-,N/A,,Scattered Clouds,50,2013-07-21 10:13:00
6:34 AM,63.5,58.3,83,29.97,10.0,Calm,Calm,-,N/A,,Clear,0,2013-07-21 10:34:00
6:54 AM,63.1,58.6,85,29.98,10.0,NE,3.5,-,N/A,,Clear,40,2013-07-21 10:54:00
7:14 AM,63.5,58.5,84,29.98,10.0,Calm,Calm,-,N/A,,Scattered Clouds,0,2013-07-21 11:14:00
7:34 AM,63.9,59.0,84,29.99,10.0,ENE,4.6,-,N/A,,Scattered Clouds,70,2013-07-21 11:34:00
7:54 AM,64.2,59.4,84,30.00,10.0,Calm,Calm,-,N/A,,Mostly Cloudy,0,2013-07-21 11:54:00
8:14 AM,65.3,60.1,83,30.01,10.0,ENE,3.5,-,N/A,,Mostly Cloudy,60,2013-07-21 12:14:00
8:34 AM,66.7,60.8,81,30.01,10.0,ENE,3.5,-,N/A,,Scattered Clouds,60,2013-07-21 12:34:00
8:54 AM,68.0,61.7,80,30.00,10.0,NE,4.6,-,N/A,,Clear,50,2013-07-21 12:54:00
9:14 AM,69.4,62.2,78,30.01,10.0,East,5.8,-,N/A,,Clear,90,2013-07-21 13:14:00
9:34 AM,70.0,62.4,77,30.01,10.0,East,3.5,-,N/A,,Clear,100,2013-07-21 13:34:00
9:53 AM,71.6,62.8,74,30.00,10.0,East,5.8,-,N/A,,Clear,90,2013-07-21 13:53:00
10:14 AM,72.7,63.7,73,30.01,10.0,East,4.6,-,N/A,,Clear,80,2013-07-21 14:14:00
10:34 AM,73.8,64.2,72,30.01,10.0,SE,3.5,-,N/A,,Clear,140,2013-07-21 14:34:00
10:54 AM,74.7,64.4,70,30.01,10.0,Calm,Calm,-,N/A,,Clear,0,2013-07-21 14:54:00
11:14 AM,76.3,65.1,68,30.01,10.0,ESE,4.6,-,N/A,,Clear,110,2013-07-21 15:14:00
11:34 AM,77.2,65.1,66,30.01,10.0,East,3.5,-,N/A,,Clear,80,2013-07-21 15:34:00
11:54 AM,78.1,65.3,65,30.01,10.0,SE,3.5,-,N/A,,Clear,130,2013-07-21 15:54:00
12:14 PM,78.8,65.3,63,30.01,10.0,SSE,3.5,-,N/A,,Scattered Clouds,150,2013-07-21 16:14:00
12:34 PM,78.4,64.8,63,30.00,10.0,ESE,3.5,-,N/A,,Scattered Clouds,120,2013-07-21 16:34:00
12:54 PM,79.2,64.8,61,29.99,10.0,SSE,3.5,-,N/A,,Clear,150,2013-07-21 16:54:00
1:14 PM,79.7,64.8,60,29.99,10.0,South,3.5,-,N/A,,Clear,170,2013-07-21 17:14:00
1:34 PM,81.1,64.8,57,29.99,10.0,Calm,Calm,-,N/A,,Clear,0,2013-07-21 17:34:00
1:54 PM,81.1,64.4,57,29.99,10.0,Calm,Calm,-,N/A,,Scattered Clouds,0,2013-07-21 17:54:00
2:14 PM,80.6,64.0,57,29.99,10.0,Calm,Calm,-,N/A,,Scattered Clouds,0,2013-07-21 18:14:00
2:34 PM,80.2,65.1,60,29.99,10.0,Calm,Calm,-,N/A,,Mostly Cloudy,0,2013-07-21 18:34:00
2:54 PM,81.0,63.7,56,29.98,10.0,SE,3.5,-,N/A,,Overcast,140,2013-07-21 18:54:00
3:13 PM,81.3,64.4,56,29.97,10.0,Calm,Calm,-,N/A,,Mostly Cloudy,0,2013-07-21 19:13:00
3:34 PM,81.7,63.7,54,29.96,10.0,East,3.5,-,N/A,,Overcast,80,2013-07-21 19:34:00
3:54 PM,80.4,63.0,55,29.96,10.0,East,4.6,-,N/A,,Mostly Cloudy,80,2013-07-21 19:54:00
4:13 PM,81.1,64.6,57,29.95,10.0,ENE,4.6,-,N/A,,Scattered Clouds,70,2013-07-21 20:13:00
4:34 PM,81.5,64.4,56,29.94,10.0,East,3.5,-,N/A,,Scattered Clouds,90,2013-07-21 20:34:00
4:54 PM,82.9,63.7,52,29.94,10.0,ESE,5.8,-,N/A,,Clear,110,2013-07-21 20:54:00
5:14 PM,84.0,64.2,51,29.92,10.0,SE,5.8,-,N/A,,Clear,140,2013-07-21 21:14:00
5:34 PM,84.2,63.3,49,29.92,10.0,ESE,4.6,-,N/A,,Clear,120,2013-07-21 21:34:00
5:54 PM,83.8,63.3,50,29.92,10.0,SE,4.6,-,N/A,,Clear,130,2013-07-21 21:54:00
6:14 PM,83.8,63.1,50,29.91,10.0,ESE,4.6,-,N/A,,Clear,120,2013-07-21 22:14:00
6:34 PM,83.5,63.0,50,29.91,10.0,SE,5.8,-,N/A,,Clear,140,2013-07-21 22:34:00
6:54 PM,83.3,62.6,50,29.91,10.0,East,4.6,-,N/A,,Clear,100,2013-07-21 22:54:00
7:14 PM,82.6,63.7,53,29.90,10.0,ESE,5.8,-,N/A,,Clear,110,2013-07-21 23:14:00
7:34 PM,81.5,63.5,54,29.91,10.0,ESE,3.5,-,N/A,,Clear,110,2013-07-21 23:34:00
7:54 PM,80.4,64.2,58,29.91,10.0,ESE,3.5,-,N/A,,Clear,110,2013-07-21 23:54:00
8:14 PM,79.7,64.4,59,29.91,10.0,East,9.2,-,N/A,,Scattered Clouds,100,2013-07-22 00:14:00
8:34 PM,78.4,66.0,66,29.92,10.0,ESE,3.5,-,N/A,Rain,Light Rain,120,2013-07-22 00:34:00
8:53 PM,76.5,67.1,73,29.92,10.0,East,4.6,-,N/A,Rain,Light Rain,80,2013-07-22 00:53:00
9:14 PM,74.8,68.0,79,29.92,10.0,East,3.5,-,N/A,,Mostly Cloudy,90,2013-07-22 01:14:00
9:34 PM,74.8,68.0,79,29.92,10.0,East,4.6,-,N/A,,Scattered Clouds,80,2013-07-22 01:34:00
9:54 PM,73.4,68.4,84,29.93,10.0,North,3.5,-,N/A,,Scattered Clouds,10,2013-07-22 01:54:00
10:14 PM,73.6,68.5,84,29.93,10.0,Calm,Calm,-,N/A,,Mostly Cloudy,0,2013-07-22 02:14:00
10:34 PM,74.3,68.0,81,29.94,10.0,Calm,Calm,-,N/A,,Mostly Cloudy,0,2013-07-22 02:34:00
10:54 PM,73.8,68.0,82,29.94,10.0,Calm,Calm,-,N/A,,Mostly Cloudy,0,2013-07-22 02:54:00
11:14 PM,73.6,68.4,84,29.93,10.0,Calm,Calm,-,N/A,,Mostly Cloudy,0,2013-07-22 03:14:00
11:34 PM,73.2,68.5,85,29.95,10.0,WNW,16.1,20.7,N/A,,Mostly Cloudy,300,2013-07-22 03:34:00
11:54 PM,68.9,63.7,83,29.96,10.0,North,5.8,21.9,N/A,,Overcast,350,2013-07-22 03:54:00